Time;durP1;ratioP1;P1;durP2;ratioP2;P2;SDS_P1;SDS_P2;PMS_P1;PMS_P2;Temp;Humidity;BMP_temperature;BMP_pressure;BME280_temperature;BME280_humidity;BME280_pressure;Samples;Min_cycle;Max_cycle;Signal;HPM_P1;HPM_P2
2021/03/19 00:02:06;;;;;;;8.98;1.80;;;2.60;99.90;;;;;;5071008;28;20041;-89
2021/03/19 00:04:32;;;;;;;11.63;1.67;;;2.50;99.90;;;;;;5025070;28;20044;-89
2021/03/19 00:06:57;;;;;;;9.75;2.13;;;2.50;99.90;;;;;;5026899;28;20036;-91
2021/03/19 00:09:24;;;;;;;14.45;2.90;;;2.60;99.90;;;;;;5044257;28;20467;-89
2021/03/19 00:11:49;;;;;;;15.20;2.10;;;2.60;99.90;;;;;;5050528;28;20071;-91
2021/03/19 00:14:15;;;;;;;17.42;2.47;;;2.50;99.90;;;;;;5058616;28;20073;-92
2021/03/19 00:16:41;;;;;;;17.70;2.30;;;2.60;99.90;;;;;;5065997;28;20032;-91
2021/03/19 00:19:08;;;;;;;13.32;1.58;;;2.60;99.90;;;;;;5042492;28;20032;-91
2021/03/19 00:21:34;;;;;;;6.07;2.13;;;2.60;99.90;;;;;;5049363;28;20037;-92
2021/03/19 00:24:00;;;;;;;10.40;2.08;;;2.70;99.90;;;;;;5045400;28;20526;-90
2021/03/19 00:26:26;;;;;;;6.70;1.88;;;2.60;99.90;;;;;;5068315;28;20089;-91
2021/03/19 00:28:53;;;;;;;17.38;1.65;;;2.70;99.90;;;;;;5066059;28;20044;-89
2021/03/19 00:31:19;;;;;;;14.25;2.15;;;2.70;99.90;;;;;;5061387;28;20090;-92
2021/03/19 00:33:45;;;;;;;15.00;2.63;;;2.70;99.90;;;;;;5045236;28;20041;-90
2021/03/19 00:36:11;;;;;;;8.70;2.05;;;2.70;99.90;;;;;;5048925;28;20032;-90
2021/03/19 00:38:37;;;;;;;7.20;1.58;;;2.70;99.90;;;;;;5066417;28;20121;-91
2021/03/19 00:41:03;;;;;;;13.88;2.47;;;2.70;99.90;;;;;;5044602;28;20434;-90
2021/03/19 00:43:29;;;;;;;14.68;1.80;;;2.70;99.90;;;;;;5063089;28;20075;-90
2021/03/19 00:45:55;;;;;;;13.82;2.08;;;2.70;99.90;;;;;;5065529;28;20458;-92
2021/03/19 00:48:20;;;;;;;16.13;2.20;;;2.70;99.90;;;;;;5045903;28;20045;-90
2021/03/19 00:50:46;;;;;;;17.42;3.47;;;2.80;99.90;;;;;;5047630;28;20118;-90
2021/03/19 00:53:12;;;;;;;14.75;2.25;;;2.80;99.90;;;;;;5065369;28;20051;-90
2021/03/19 00:55:39;;;;;;;11.60;2.55;;;2.80;99.90;;;;;;5048728;28;20044;-91
2021/03/19 00:58:05;;;;;;;14.05;2.45;;;2.80;99.90;;;;;;5058309;28;20051;-90
2021/03/19 01:00:33;;;;;;;13.40;2.53;;;2.80;99.90;;;;;;5061601;28;20056;-90
2021/03/19 01:02:59;;;;;;;14.63;3.45;;;2.80;99.90;;;;;;5076699;28;20040;-91
2021/03/19 01:05:34;;;;;;;13.35;2.97;;;2.90;99.90;;;;;;5062813;28;20048;-89
2021/03/19 01:08:00;;;;;;;8.85;2.45;;;2.80;99.90;;;;;;5034455;28;20048;-92
2021/03/19 01:10:51;;;;;;;11.38;2.65;;;2.80;99.90;;;;;;5049876;28;20040;-89
2021/03/19 01:13:18;;;;;;;15.45;3.22;;;2.90;99.90;;;;;;5042501;28;20450;-89
2021/03/19 01:15:44;;;;;;;14.82;2.92;;;2.80;99.90;;;;;;5049573;28;20801;-91
2021/03/19 01:18:13;;;;;;;11.98;3.25;;;2.90;99.90;;;;;;5045224;28;20084;-92
2021/03/19 01:20:41;;;;;;;17.40;3.95;;;2.90;99.90;;;;;;5045917;28;20046;-90
2021/03/19 01:23:07;;;;;;;15.40;2.75;;;2.80;99.90;;;;;;5080701;28;20088;-90
2021/03/19 01:25:33;;;;;;;12.95;3.10;;;2.90;99.90;;;;;;5030604;28;20072;-89
2021/03/19 01:27:59;;;;;;;11.70;3.05;;;2.90;99.90;;;;;;5065603;28;20066;-90
2021/03/19 01:30:28;;;;;;;11.65;2.72;;;2.80;99.90;;;;;;5049950;28;20041;-90
2021/03/19 01:32:54;;;;;;;18.73;3.40;;;2.80;99.90;;;;;;5061731;28;20045;-92
2021/03/19 01:35:22;;;;;;;11.63;3.42;;;2.80;99.90;;;;;;5060929;28;20064;-91
2021/03/19 01:37:49;;;;;;;12.25;3.35;;;2.80;99.90;;;;;;5078337;28;20098;-91
2021/03/19 01:40:15;;;;;;;12.82;2.95;;;2.80;99.90;;;;;;5050924;28;20045;-91
2021/03/19 01:43:05;;;;;;;9.93;2.45;;;2.80;99.90;;;;;;5062492;28;20073;-90
2021/03/19 01:46:15;;;;;;;36.20;4.88;;;2.80;99.90;;;;;;5060878;28;20082;-90
2021/03/19 01:49:19;;;;;;;10.93;3.03;;;2.80;99.90;;;;;;5041439;28;20041;-90
2021/03/19 01:52:23;;;;;;;15.95;3.53;;;2.80;99.90;;;;;;5029119;28;20327;-90
2021/03/19 01:55:07;;;;;;;;;;;2.80;99.90;;;;;;5016376;28;20048;-89
2021/03/19 01:58:10;;;;;;;16.73;3.28;;;2.80;99.90;;;;;;5043852;28;20051;-90
2021/03/19 02:01:14;;;;;;;18.30;3.58;;;2.70;99.90;;;;;;5051463;28;20036;-89
2021/03/19 02:04:17;;;;;;;11.35;2.47;;;2.70;99.90;;;;;;5023770;28;20076;-90
2021/03/19 02:07:20;;;;;;;15.23;3.15;;;2.70;99.90;;;;;;5033182;28;20037;-90
2021/03/19 02:10:24;;;;;;;8.73;2.22;;;2.70;99.90;;;;;;5027445;28;20041;-90
2021/03/19 02:13:27;;;;;;;14.07;2.47;;;2.70;99.90;;;;;;5043782;28;20101;-91
2021/03/19 02:16:30;;;;;;;15.60;3.13;;;2.70;99.90;;;;;;5039825;28;20033;-92
2021/03/19 02:19:34;;;;;;;14.48;2.65;;;2.70;99.90;;;;;;5027157;28;20409;-90
2021/03/19 02:22:37;;;;;;;16.40;2.90;;;2.70;99.90;;;;;;5025479;28;20501;-90
2021/03/19 02:25:41;;;;;;;12.90;2.55;;;2.70;99.90;;;;;;5033775;28;20041;-91
2021/03/19 02:28:45;;;;;;;21.63;2.95;;;2.60;99.90;;;;;;5039437;28;20132;-90
2021/03/19 02:31:11;;;;;;;15.98;2.50;;;2.60;99.90;;;;;;5038410;28;20041;-90
2021/03/19 02:33:47;;;;;;;14.55;3.13;;;2.60;99.90;;;;;;5062656;28;20124;-91
2021/03/19 02:36:20;;;;;;;21.30;3.00;;;2.60;99.90;;;;;;5014600;28;20533;-91
2021/03/19 02:38:45;;;;;;;17.20;2.50;;;2.50;99.90;;;;;;5045453;28;20044;-91
2021/03/19 02:41:11;;;;;;;14.38;3.03;;;2.50;99.90;;;;;;5048270;28;20048;-90
2021/03/19 02:43:37;;;;;;;19.20;3.25;;;2.50;99.90;;;;;;5069508;28;20470;-91
2021/03/19 02:46:03;;;;;;;17.27;3.88;;;2.50;99.90;;;;;;5048891;28;20113;-91
2021/03/19 02:48:28;;;;;;;14.98;3.50;;;2.40;99.90;;;;;;5045233;28;20567;-90
2021/03/19 02:50:54;;;;;;;12.70;2.78;;;2.40;99.90;;;;;;5047843;28;20075;-90
2021/03/19 02:53:24;;;;;;;18.55;2.92;;;2.40;99.90;;;;;;5010321;28;20048;-90
2021/03/19 02:55:50;;;;;;;14.65;2.75;;;2.40;99.90;;;;;;5031640;28;20040;-91
2021/03/19 02:58:17;;;;;;;9.70;2.42;;;2.40;99.90;;;;;;5063227;28;20561;-91
2021/03/19 03:00:44;;;;;;;13.27;3.03;;;2.40;99.90;;;;;;5027648;28;20045;-90
2021/03/19 03:03:10;;;;;;;17.42;3.03;;;2.40;99.90;;;;;;5008901;28;20103;-90
2021/03/19 03:05:36;;;;;;;10.23;2.90;;;2.50;99.90;;;;;;5044808;28;20506;-91
2021/03/19 03:08:03;;;;;;;17.38;2.42;;;2.50;99.90;;;;;;5062186;28;20087;-92
2021/03/19 03:10:32;;;;;;;15.75;4.80;;;2.40;99.90;;;;;;5042765;28;20075;-90
2021/03/19 03:12:57;;;;;;;19.50;3.10;;;2.50;99.90;;;;;;5043369;28;20518;-91
2021/03/19 03:15:24;;;;;;;19.33;3.60;;;2.50;99.90;;;;;;5047338;28;20465;-90
2021/03/19 03:17:51;;;;;;;14.38;3.15;;;2.50;99.90;;;;;;5061000;28;20072;-91
2021/03/19 03:20:22;;;;;;;8.73;2.80;;;2.50;99.90;;;;;;5049362;28;20608;-90
2021/03/19 03:22:48;;;;;;;13.23;2.75;;;2.50;99.90;;;;;;5026454;28;20077;-91
2021/03/19 03:25:16;;;;;;;15.18;2.70;;;2.40;99.90;;;;;;5042221;28;20057;-91
2021/03/19 03:27:43;;;;;;;9.43;3.10;;;2.50;99.90;;;;;;5075815;28;20079;-90
2021/03/19 03:30:18;;;;;;;13.80;3.28;;;2.50;99.90;;;;;;5043317;28;20119;-91
2021/03/19 03:32:44;;;;;;;9.35;2.25;;;2.40;99.90;;;;;;5058883;28;20084;-91
2021/03/19 03:35:11;;;;;;;7.50;2.58;;;2.50;99.90;;;;;;5043495;28;20091;-91
2021/03/19 03:37:38;;;;;;;15.60;2.72;;;2.40;99.90;;;;;;5021800;28;20163;-90
2021/03/19 03:40:08;;;;;;;9.07;2.67;;;2.40;99.90;;;;;;5042332;28;20049;-90
2021/03/19 03:42:34;;;;;;;15.95;3.67;;;2.40;99.90;;;;;;5056204;28;20094;-91
2021/03/19 03:45:00;;;;;;;15.05;3.42;;;2.40;99.90;;;;;;5049515;28;20072;-90
2021/03/19 03:47:27;;;;;;;19.98;3.47;;;2.40;99.90;;;;;;5041095;28;20497;-92
2021/03/19 03:49:53;;;;;;;23.95;2.72;;;2.40;99.90;;;;;;5026085;28;20142;-90
2021/03/19 03:52:19;;;;;;;16.25;2.83;;;2.50;99.90;;;;;;5054372;28;20048;-89
2021/03/19 03:54:45;;;;;;;11.50;2.78;;;2.40;99.90;;;;;;5052871;28;20087;-90
2021/03/19 03:57:11;;;;;;;23.50;3.63;;;2.50;99.90;;;;;;5053241;28;20433;-91
2021/03/19 03:59:37;;;;;;;9.02;3.13;;;2.40;99.90;;;;;;5042144;28;20064;-90
2021/03/19 04:02:36;;;;;;;14.60;2.72;;;2.40;99.90;;;;;;5076576;28;20072;-91
2021/03/19 04:05:06;;;;;;;10.00;2.92;;;2.50;99.90;;;;;;4994653;28;20049;-90
2021/03/19 04:07:32;;;;;;;9.40;2.50;;;2.50;99.90;;;;;;5033259;28;20076;-91
2021/03/19 04:09:58;;;;;;;17.60;3.63;;;2.50;99.90;;;;;;5047329;28;20052;-91
2021/03/19 04:12:25;;;;;;;12.55;4.38;;;2.40;99.90;;;;;;5054229;28;20083;-91
2021/03/19 04:14:51;;;;;;;13.38;3.22;;;2.40;99.90;;;;;;5048211;28;20578;-91
2021/03/19 04:17:28;;;;;;;20.00;3.15;;;2.40;99.90;;;;;;5042971;28;20575;-89
2021/03/19 04:19:56;;;;;;;22.15;2.90;;;2.40;99.90;;;;;;5041989;28;20560;-89
2021/03/19 04:22:23;;;;;;;12.98;3.33;;;2.40;99.90;;;;;;5066545;28;20132;-90
2021/03/19 04:24:49;;;;;;;20.15;3.20;;;2.40;99.90;;;;;;5051087;28;20076;-90
2021/03/19 04:27:21;;;;;;;12.60;3.33;;;2.40;99.90;;;;;;5068050;28;20109;-90
2021/03/19 04:29:48;;;;;;;11.63;3.78;;;2.40;99.90;;;;;;5051916;28;20048;-90
2021/03/19 04:32:15;;;;;;;9.82;2.97;;;2.40;99.90;;;;;;5049834;28;20576;-91
2021/03/19 04:34:42;;;;;;;14.45;3.10;;;2.40;99.90;;;;;;5048687;28;20076;-90
2021/03/19 04:37:12;;;;;;;20.25;2.83;;;2.40;99.90;;;;;;5028299;28;20072;-89
2021/03/19 04:39:42;;;;;;;18.33;3.25;;;2.50;99.90;;;;;;5043279;28;20072;-91
2021/03/19 04:42:09;;;;;;;13.30;2.72;;;2.40;99.90;;;;;;5041011;28;20080;-92
2021/03/19 04:44:44;;;;;;;15.45;3.08;;;2.40;99.90;;;;;;5056778;28;20076;-90
2021/03/19 04:47:11;;;;;;;10.90;2.22;;;2.50;99.90;;;;;;5051567;28;20091;-91
2021/03/19 04:49:38;;;;;;;9.95;2.90;;;2.40;99.90;;;;;;5050656;28;20085;-91
2021/03/19 04:52:05;;;;;;;16.73;3.00;;;2.50;99.90;;;;;;5049478;28;20055;-91
2021/03/19 04:54:32;;;;;;;15.90;2.85;;;2.50;99.90;;;;;;5048032;28;20041;-90
2021/03/19 04:56:59;;;;;;;12.23;3.60;;;2.50;99.90;;;;;;5059283;28;20053;-91
2021/03/19 04:59:26;;;;;;;13.23;2.90;;;2.40;99.90;;;;;;5057582;28;20142;-90
2021/03/19 05:01:58;;;;;;;16.58;2.95;;;2.40;99.90;;;;;;5075160;28;20076;-91
2021/03/19 05:04:25;;;;;;;18.77;4.25;;;2.50;99.90;;;;;;5050211;28;20324;-92
2021/03/19 05:06:59;;;;;;;19.15;3.45;;;2.40;99.90;;;;;;5058156;28;20045;-92
2021/03/19 05:09:29;;;;;;;10.23;2.50;;;2.50;99.90;;;;;;5052784;28;20085;-91
2021/03/19 05:11:56;;;;;;;15.32;3.47;;;2.40;99.90;;;;;;5045232;28;20427;-91
2021/03/19 05:14:23;;;;;;;10.38;2.58;;;2.40;99.90;;;;;;5046530;28;20489;-89
2021/03/19 05:16:49;;;;;;;9.52;2.97;;;2.40;99.90;;;;;;5054422;28;20448;-92
2021/03/19 05:19:16;;;;;;;12.50;3.53;;;2.40;99.90;;;;;;5058282;28;20049;-89
2021/03/19 05:21:43;;;;;;;11.30;2.60;;;2.50;99.90;;;;;;5087883;28;20053;-92
2021/03/19 05:24:10;;;;;;;11.77;3.63;;;2.40;99.90;;;;;;5052342;28;20512;-90
2021/03/19 05:26:39;;;;;;;14.82;3.47;;;2.40;99.90;;;;;;5064027;28;20102;-91
2021/03/19 05:29:07;;;;;;;14.45;3.70;;;2.40;99.90;;;;;;5061305;28;20086;-91
2021/03/19 05:31:34;;;;;;;14.43;3.20;;;2.40;99.90;;;;;;5073233;28;20080;-88
2021/03/19 05:34:00;;;;;;;18.13;3.00;;;2.50;99.90;;;;;;5050735;28;20076;-91
2021/03/19 05:36:29;;;;;;;15.13;3.30;;;2.40;99.90;;;;;;5046125;28;20091;-90
2021/03/19 05:38:55;;;;;;;13.35;3.25;;;2.40;99.90;;;;;;5045417;28;20537;-92
2021/03/19 05:41:28;;;;;;;20.48;3.03;;;2.40;99.90;;;;;;5076262;28;20052;-92
2021/03/19 05:44:07;;;;;;;18.17;3.13;;;2.40;99.90;;;;;;5071663;28;20041;-91
2021/03/19 05:46:38;;;;;;;13.60;3.25;;;2.40;99.90;;;;;;5077855;28;20044;-90
2021/03/19 05:49:10;;;;;;;19.42;4.25;;;2.40;99.90;;;;;;5066677;28;20064;-91
2021/03/19 05:51:52;;;;;;;18.05;6.25;;;2.50;99.90;;;;;;5068947;28;20048;-91
2021/03/19 05:54:48;;;;;;;9.98;3.13;;;2.60;99.90;;;;;;5059819;28;20056;-92
2021/03/19 05:57:25;;;;;;;14.60;2.92;;;2.60;99.90;;;;;;5033176;28;20080;-92
2021/03/19 05:59:54;;;;;;;10.05;2.67;;;2.70;99.90;;;;;;5052109;28;20049;-90
2021/03/19 06:02:26;;;;;;;15.43;3.30;;;2.70;99.90;;;;;;5046258;28;20044;-91
2021/03/19 06:05:05;;;;;;;24.25;4.25;;;2.70;99.90;;;;;;5065559;28;20088;-91
2021/03/19 06:07:43;;;;;;;8.52;3.75;;;2.80;99.90;;;;;;5067261;28;20466;-91
2021/03/19 06:10:34;;;;;;;14.90;3.35;;;2.90;99.90;;;;;;5049329;28;20102;-91
2021/03/19 06:13:22;;;;;;;10.57;3.78;;;2.90;99.90;;;;;;5060620;28;20600;-92
2021/03/19 06:15:54;;;;;;;10.43;3.38;;;3.00;99.90;;;;;;5049659;28;20045;-90
2021/03/19 06:18:35;;;;;;;14.57;3.47;;;3.00;99.90;;;;;;5047657;28;20057;-91
2021/03/19 06:21:11;;;;;;;12.48;3.63;;;3.10;99.90;;;;;;5076295;28;20071;-91
2021/03/19 06:23:41;;;;;;;10.35;3.00;;;3.10;99.90;;;;;;5058412;28;20103;-91
2021/03/19 06:26:43;;;;;;;12.60;3.72;;;3.20;99.90;;;;;;5037590;28;20053;-89
2021/03/19 06:29:46;;;;;;;12.82;4.32;;;3.20;99.90;;;;;;5032789;28;20045;-92
2021/03/19 06:32:32;;;;;;;16.33;4.60;;;3.30;99.90;;;;;;5010345;28;20487;-91
2021/03/19 06:35:13;;;;;;;14.25;4.70;;;3.40;99.90;;;;;;5028681;28;20477;-92
2021/03/19 06:38:24;;;;;;;15.90;3.30;;;3.40;99.90;;;;;;5030747;28;20059;-92
2021/03/19 06:41:18;;;;;;;52.85;27.20;;;3.70;99.90;;;;;;5056493;28;20041;-92
2021/03/19 06:44:14;;;;;;;22.33;4.85;;;4.10;99.90;;;;;;5032739;28;20289;-92
2021/03/19 06:47:07;;;;;;;32.45;15.82;;;4.10;99.90;;;;;;5023952;28;20106;-90
2021/03/19 06:49:55;;;;;;;16.50;5.68;;;4.70;99.90;;;;;;5020255;28;20060;-90
2021/03/19 06:52:41;;;;;;;16.48;5.93;;;4.70;99.90;;;;;;5045318;28;20053;-90
2021/03/19 06:55:40;;;;;;;13.70;4.80;;;4.60;99.90;;;;;;5046086;28;20049;-91
2021/03/19 06:58:51;;;;;;;16.00;5.35;;;4.70;99.90;;;;;;5045736;28;20488;-90
2021/03/19 07:01:38;;;;;;;16.50;5.18;;;4.70;99.90;;;;;;5032249;28;20607;-91
2021/03/19 07:04:24;;;;;;;14.15;7.78;;;4.70;99.90;;;;;;5036216;28;20048;-92
2021/03/19 07:07:22;;;;;;;18.98;4.82;;;5.00;99.90;;;;;;5051917;28;20126;-90
2021/03/19 07:10:32;;;;;;;15.43;8.25;;;5.00;99.90;;;;;;5034119;28;20487;-93
2021/03/19 07:13:51;;;;;;;13.55;6.00;;;5.10;99.90;;;;;;5023689;28;20544;-90
2021/03/19 07:16:59;;;;;;;28.83;14.60;;;5.20;99.90;;;;;;5041762;28;20052;-91
2021/03/19 07:19:34;;;;;;;14.95;4.93;;;5.50;99.90;;;;;;5044752;28;20045;-94
2021/03/19 07:22:34;;;;;;;20.38;6.93;;;5.60;99.90;;;;;;5050344;28;20052;-94
2021/03/19 07:25:58;;;;;;;24.30;11.90;;;5.90;99.90;;;;;;5028318;28;20045;-91
2021/03/19 07:28:59;;;;;;;22.10;6.65;;;6.10;99.90;;;;;;5028496;28;20111;-94
2021/03/19 07:31:52;;;;;;;19.23;8.40;;;6.10;99.90;;;;;;5035884;28;20461;-93
2021/03/19 07:34:45;;;;;;;13.82;5.30;;;6.20;99.90;;;;;;5037211;28;20041;-92
2021/03/19 07:38:12;;;;;;;10.77;4.63;;;6.10;99.90;;;;;;5074001;28;21069;-93
2021/03/19 07:41:27;;;;;;;19.13;7.93;;;6.20;99.90;;;;;;5007299;28;20140;-83
2021/03/19 07:44:22;;;;;;;14.50;7.65;;;6.70;99.90;;;;;;5052043;28;20052;-82
2021/03/19 07:47:24;;;;;;;15.52;6.97;;;6.90;99.90;;;;;;5018804;28;20051;-82
2021/03/19 07:50:20;;;;;;;15.35;6.50;;;7.00;99.90;;;;;;5022464;28;20059;-83
2021/03/19 07:53:41;;;;;;;19.63;9.55;;;7.10;99.90;;;;;;5022342;28;20493;-82
2021/03/19 07:56:47;;;;;;;12.80;4.35;;;7.60;99.90;;;;;;5018965;28;20452;-82
2021/03/19 07:59:49;;;;;;;17.98;7.78;;;7.00;99.90;;;;;;5063437;28;20048;-82
2021/03/19 08:02:58;;;;;;;19.75;6.15;;;7.40;99.90;;;;;;5021684;28;20044;-82
2021/03/19 08:05:51;;;;;;;15.40;7.57;;;7.80;99.90;;;;;;5044924;28;20061;-82
2021/03/19 08:09:03;;;;;;;10.70;5.75;;;8.20;99.90;;;;;;5048844;28;20545;-82
2021/03/19 08:12:13;;;;;;;15.68;7.78;;;9.00;99.90;;;;;;5039270;28;20080;-83
2021/03/19 08:15:14;;;;;;;9.98;5.55;;;10.60;99.90;;;;;;5014962;28;20048;-82
2021/03/19 08:18:22;;;;;;;15.98;6.60;;;10.50;99.90;;;;;;5010985;28;20064;-83
2021/03/19 08:21:24;;;;;;;12.43;5.60;;;11.10;99.90;;;;;;5029559;28;20049;-84
2021/03/19 08:24:34;;;;;;;11.95;3.67;;;12.00;99.90;;;;;;5029343;28;20037;-83
2021/03/19 08:27:39;;;;;;;11.93;3.65;;;11.40;99.90;;;;;;5040647;28;20137;-83
2021/03/19 08:30:48;;;;;;;11.45;3.83;;;10.80;99.90;;;;;;5025303;28;20074;-86
2021/03/19 08:34:02;;;;;;;11.73;3.65;;;12.40;99.90;;;;;;5019599;28;20092;-86
2021/03/19 08:36:50;;;;;;;8.38;3.58;;;11.30;99.90;;;;;;5048912;28;20045;-87
2021/03/19 08:39:43;;;;;;;7.68;3.50;;;12.70;99.90;;;;;;5029367;28;20042;-84
2021/03/19 08:42:36;;;;;;;7.03;3.00;;;12.80;99.90;;;;;;5014590;28;20052;-87
2021/03/19 08:45:25;;;;;;;8.40;2.97;;;13.00;99.40;;;;;;5049347;28;20049;-85
2021/03/19 08:48:16;;;;;;;4.88;2.60;;;12.30;99.80;;;;;;5048053;28;20053;-84
2021/03/19 08:51:35;;;;;;;10.50;2.88;;;12.10;99.90;;;;;;5014475;28;20053;-87
2021/03/19 08:54:29;;;;;;;11.13;4.07;;;13.20;99.20;;;;;;5038706;28;20053;-85
2021/03/19 08:57:18;;;;;;;9.23;4.35;;;14.60;96.20;;;;;;5033040;28;20048;-83
2021/03/19 09:00:13;;;;;;;14.20;5.28;;;13.10;99.00;;;;;;5041105;28;20117;-84
2021/03/19 09:03:06;;;;;;;16.02;6.53;;;14.30;96.80;;;;;;5043250;28;20332;-89
2021/03/19 09:05:53;;;;;;;11.43;3.55;;;13.80;93.90;;;;;;5043406;28;20043;-85
2021/03/19 09:08:21;;;;;;;10.50;4.75;;;14.10;93.70;;;;;;5043722;28;20506;-85
2021/03/19 09:11:11;;;;;;;11.10;4.70;;;14.30;94.00;;;;;;5047868;28;20104;-85
2021/03/19 09:13:37;;;;;;;9.30;3.97;;;15.00;94.50;;;;;;5044025;28;20041;-85
2021/03/19 09:16:42;;;;;;;15.10;6.30;;;13.70;93.70;;;;;;5037151;28;20064;-84
2021/03/19 09:19:28;;;;;;;16.63;6.72;;;13.50;94.70;;;;;;5030612;28;20080;-84
2021/03/19 09:22:20;;;;;;;12.30;5.22;;;14.60;95.70;;;;;;5043769;28;20049;-86
2021/03/19 09:25:12;;;;;;;8.43;2.80;;;14.00;95.30;;;;;;5040126;28;20053;-86
2021/03/19 09:27:59;;;;;;;6.88;2.50;;;13.80;93.30;;;;;;5033753;28;20041;-85
2021/03/19 09:30:54;;;;;;;4.57;2.22;;;12.90;93.20;;;;;;5025239;28;20795;-87
2021/03/19 09:33:45;;;;;;;8.98;4.05;;;13.60;93.10;;;;;;5025473;28;20065;-86
2021/03/19 09:36:56;;;;;;;5.15;2.60;;;14.10;94.30;;;;;;5011192;28;20049;-86
2021/03/19 09:40:20;;;;;;;6.03;2.35;;;14.70;91.20;;;;;;5028675;28;20491;-84
2021/03/19 09:42:50;;;;;;;7.10;1.92;;;13.60;93.10;;;;;;5023107;28;20068;-85
2021/03/19 09:45:20;;;;;;;8.30;2.85;;;13.80;95.70;;;;;;5034141;28;20522;-86
2021/03/19 09:48:22;;;;;;;6.78;2.58;;;14.10;89.80;;;;;;5021980;28;20045;-84
2021/03/19 09:51:27;;;;;;;3.53;2.45;;;14.80;92.50;;;;;;5028969;28;20052;-84
2021/03/19 09:53:53;;;;;;;6.78;2.85;;;14.00;92.60;;;;;;5032306;28;20119;-85
2021/03/19 09:56:23;;;;;;;5.88;2.45;;;13.80;95.40;;;;;;5020516;28;20505;-85
2021/03/19 09:58:51;;;;;;;5.55;2.67;;;14.30;90.10;;;;;;5036389;28;20098;-85
2021/03/19 10:01:26;;;;;;;3.65;2.13;;;15.80;86.50;;;;;;5013376;28;20044;-83
2021/03/19 10:04:02;;;;;;;3.63;1.98;;;15.50;88.90;;;;;;5035108;28;20073;-84
2021/03/19 10:06:48;;;;;;;7.25;2.70;;;14.20;89.10;;;;;;5020148;28;20084;-85
2021/03/19 10:09:48;;;;;;;7.28;1.80;;;13.90;91.50;;;;;;5041407;28;20070;-84
2021/03/19 10:12:36;;;;;;;3.78;2.30;;;15.00;89.80;;;;;;5045330;28;20053;-86
2021/03/19 10:15:27;;;;;;;6.40;2.17;;;16.40;79.30;;;;;;5036467;28;20063;-84
2021/03/19 10:18:33;;;;;;;4.55;2.03;;;14.40;78.40;;;;;;5053498;28;20052;-84
2021/03/19 10:21:22;;;;;;;5.40;2.22;;;14.60;84.20;;;;;;5046630;28;20040;-86
2021/03/19 10:24:09;;;;;;;2.40;1.73;;;15.60;84.40;;;;;;5015395;28;20147;-86
2021/03/19 10:26:51;;;;;;;3.92;2.13;;;15.70;87.30;;;;;;5027369;28;20127;-86
2021/03/19 10:29:21;;;;;;;3.30;1.65;;;16.20;80.80;;;;;;5035640;28;20053;-86
2021/03/19 10:31:49;;;;;;;3.97;2.17;;;15.50;78.30;;;;;;5042744;28;20037;-87
2021/03/19 10:34:33;;;;;;;3.10;1.67;;;14.70;76.70;;;;;;5043460;28;20067;-82
2021/03/19 10:37:33;;;;;;;3.65;1.63;;;15.40;76.60;;;;;;5029699;28;20069;-87
2021/03/19 10:40:26;;;;;;;4.20;2.00;;;16.30;81.40;;;;;;5029224;28;20072;-84
2021/03/19 10:43:01;;;;;;;2.33;1.40;;;16.60;77.10;;;;;;5044149;28;20458;-86
2021/03/19 10:45:32;;;;;;;3.17;1.60;;;15.00;73.90;;;;;;5029076;28;20344;-85
2021/03/19 10:48:16;;;;;;;3.50;1.60;;;16.30;78.50;;;;;;5032716;28;20044;-85
2021/03/19 10:50:53;;;;;;;2.97;2.35;;;16.40;76.50;;;;;;5030190;28;20386;-85
2021/03/19 10:53:28;;;;;;;10.23;3.97;;;15.40;75.40;;;;;;5035532;28;20049;-86
2021/03/19 10:55:55;;;;;;;3.97;1.77;;;15.90;78.90;;;;;;5037390;28;20506;-85
2021/03/19 10:58:52;;;;;;;5.32;2.72;;;15.30;75.90;;;;;;5017739;28;20118;-85
2021/03/19 11:01:37;;;;;;;6.97;3.58;;;15.30;80.40;;;;;;5013506;28;20171;-85
2021/03/19 11:04:25;;;;;;;5.78;2.03;;;15.30;73.10;;;;;;5044749;28;20048;-84
2021/03/19 11:06:51;;;;;;;8.93;3.95;;;15.70;78.00;;;;;;5043687;28;20068;-85
2021/03/19 11:09:24;;;;;;;2.40;1.52;;;15.80;74.70;;;;;;5027735;28;20053;-87
2021/03/19 11:11:52;;;;;;;4.22;1.75;;;14.80;72.10;;;;;;5037305;28;20513;-85
2021/03/19 11:14:21;;;;;;;5.75;1.80;;;15.70;82.70;;;;;;5034671;28;20045;-84
2021/03/19 11:16:50;;;;;;;1.95;1.10;;;15.40;70.00;;;;;;5039210;28;20041;-85
2021/03/19 11:19:25;;;;;;;2.53;1.40;;;15.20;75.50;;;;;;5040887;28;20064;-82
2021/03/19 11:22:06;;;;;;;15.05;6.80;;;15.00;73.00;;;;;;5023817;28;20073;-85
2021/03/19 11:25:24;;;;;;;12.23;5.45;;;16.30;74.20;;;;;;5013295;28;20556;-85
2021/03/19 11:27:52;;;;;;;6.80;2.53;;;17.20;71.60;;;;;;5040235;28;20135;-85
2021/03/19 11:30:24;;;;;;;6.88;2.85;;;16.20;69.30;;;;;;5040972;28;20045;-86
2021/03/19 11:33:09;;;;;;;2.92;1.30;;;15.50;70.10;;;;;;5040117;28;20537;-86
2021/03/19 11:35:36;;;;;;;1.52;1.25;;;15.30;66.40;;;;;;5037289;28;20064;-86
2021/03/19 11:38:12;;;;;;;3.95;1.95;;;15.20;67.40;;;;;;5036291;28;20099;-88
2021/03/19 11:40:42;;;;;;;4.13;1.73;;;16.10;74.10;;;;;;5028028;28;20742;-85
2021/03/19 11:43:10;;;;;;;3.53;1.15;;;15.40;67.40;;;;;;5027000;28;20045;-85
2021/03/19 11:45:40;;;;;;;3.58;1.48;;;15.40;68.00;;;;;;5034417;28;20311;-84
2021/03/19 11:48:19;;;;;;;1.90;1.05;;;15.20;67.40;;;;;;5038658;28;20041;-84
2021/03/19 11:50:49;;;;;;;1.85;1.10;;;15.10;65.30;;;;;;5025793;28;20441;-85
2021/03/19 11:53:25;;;;;;;2.63;1.10;;;15.90;68.10;;;;;;5037468;28;20045;-85
2021/03/19 11:56:13;;;;;;;3.00;0.95;;;14.90;69.60;;;;;;5047639;28;20041;-84
2021/03/19 11:58:59;;;;;;;2.88;0.52;;;14.90;75.90;;;;;;5023079;28;20441;-84
2021/03/19 12:01:28;;;;;;;1.73;0.60;;;14.80;74.00;;;;;;5044485;28;20048;-84
2021/03/19 12:03:55;;;;;;;4.13;0.60;;;14.30;74.90;;;;;;5026787;28;20486;-86
2021/03/19 12:06:24;;;;;;;3.35;0.70;;;14.40;83.70;;;;;;5038818;28;20041;-86
2021/03/19 12:08:50;;;;;;;4.20;1.27;;;14.80;83.50;;;;;;5022945;28;20450;-84
2021/03/19 12:11:37;;;;;;;2.08;0.38;;;15.00;82.80;;;;;;5028998;28;20041;-84
2021/03/19 12:14:26;;;;;;;1.27;0.30;;;14.70;81.10;;;;;;5041517;28;20053;-84
2021/03/19 12:17:13;;;;;;;1.92;0.38;;;14.40;80.80;;;;;;5019934;28;20506;-85
2021/03/19 12:19:40;;;;;;;2.05;0.40;;;14.80;79.50;;;;;;5047386;28;20486;-85
2021/03/19 12:22:25;;;;;;;2.10;0.30;;;14.20;84.00;;;;;;5032518;28;20049;-85
2021/03/19 12:24:51;;;;;;;2.05;0.43;;;14.00;82.70;;;;;;5033385;28;20509;-85
2021/03/19 12:27:20;;;;;;;1.35;0.30;;;14.60;81.00;;;;;;5027323;28;20409;-85
2021/03/19 12:30:06;;;;;;;2.45;0.50;;;14.50;80.70;;;;;;5029781;28;20127;-85
2021/03/19 12:32:32;;;;;;;1.70;0.60;;;14.40;82.00;;;;;;5041119;28;20053;-84
2021/03/19 12:34:57;;;;;;;3.25;0.57;;;14.50;83.30;;;;;;5045828;28;20041;-84
2021/03/19 12:37:23;;;;;;;1.20;0.40;;;14.10;81.60;;;;;;5048349;28;20358;-86
2021/03/19 12:39:49;;;;;;;2.10;0.55;;;14.30;81.30;;;;;;5048978;28;20045;-86
2021/03/19 12:42:34;;;;;;;2.83;0.30;;;13.90;84.10;;;;;;5032965;28;20056;-85
2021/03/19 12:45:00;;;;;;;2.13;0.50;;;14.40;81.20;;;;;;5027234;28;20053;-85
2021/03/19 12:47:46;;;;;;;2.05;0.28;;;14.70;76.90;;;;;;5028981;28;20055;-85
2021/03/19 12:50:11;;;;;;;1.13;0.22;;;14.00;82.60;;;;;;5030341;28;20473;-84
2021/03/19 12:52:37;;;;;;;2.08;0.32;;;12.80;82.80;;;;;;5046499;28;20033;-84
2021/03/19 12:55:05;;;;;;;0.80;0.28;;;13.70;81.90;;;;;;5030774;28;20141;-84
2021/03/19 12:57:31;;;;;;;2.08;0.50;;;13.70;85.00;;;;;;5046807;28;20423;-86
2021/03/19 12:59:56;;;;;;;1.50;0.30;;;13.00;78.10;;;;;;5045795;28;20055;-85
2021/03/19 13:02:23;;;;;;;1.75;0.30;;;13.40;82.60;;;;;;5041076;28;20047;-85
2021/03/19 13:04:48;;;;;;;2.05;0.50;;;14.70;81.10;;;;;;5045107;28;20106;-86
2021/03/19 13:07:34;;;;;;;1.75;0.20;;;12.90;77.80;;;;;;5027229;28;20449;-86
2021/03/19 13:10:03;;;;;;;0.20;0.15;;;13.20;83.90;;;;;;5035568;28;20068;-85
2021/03/19 13:12:49;;;;;;;3.00;0.40;;;14.40;76.60;;;;;;5032214;28;20496;-87
2021/03/19 13:15:17;;;;;;;2.08;0.20;;;13.10;77.50;;;;;;5031354;28;21200;-84
2021/03/19 13:18:05;;;;;;;0.47;0.30;;;12.80;78.00;;;;;;5032160;28;20104;-84
2021/03/19 13:20:32;;;;;;;2.15;0.50;;;14.40;79.50;;;;;;5033683;28;20132;-88
2021/03/19 13:23:07;;;;;;;3.22;0.50;;;14.40;82.90;;;;;;5027169;28;20152;-85
2021/03/19 13:25:38;;;;;;;0.63;0.28;;;13.70;83.00;;;;;;5044354;28;20041;-87
2021/03/19 13:28:04;;;;;;;6.88;1.42;;;13.30;84.00;;;;;;5030290;28;20041;-86
2021/03/19 13:30:37;;;;;;;2.35;0.47;;;13.80;81.00;;;;;;5020436;28;20201;-86
2021/03/19 13:33:04;;;;;;;1.30;0.35;;;13.40;78.20;;;;;;5042680;28;20080;-87
2021/03/19 13:35:37;;;;;;;0.20;0.10;;;14.20;75.80;;;;;;5029374;28;20511;-87
2021/03/19 13:38:09;;;;;;;0.80;0.20;;;13.40;73.20;;;;;;5027602;28;20551;-86
2021/03/19 13:40:58;;;;;;;1.38;0.38;;;13.00;76.30;;;;;;5022976;28;20053;-88
2021/03/19 13:43:30;;;;;;;3.85;0.50;;;13.10;77.70;;;;;;5025329;28;20095;-87
2021/03/19 13:45:57;;;;;;;1.95;0.47;;;13.30;82.10;;;;;;5028645;28;20098;-85
2021/03/19 13:48:24;;;;;;;2.28;0.43;;;12.80;82.10;;;;;;5045360;28;20040;-85
2021/03/19 13:50:53;;;;;;;1.95;0.40;;;14.10;82.00;;;;;;5037979;28;20049;-84